Carp, Canada
Current Conditions -  °F | °C
As of 8:00 PM on Saturday 20 Dec 2014 (Local Time) from CYOW Reporting Station
Few Clouds Few Clouds  
Wind Chill: 12°   Ceiling: Unl
Heat Index: 12°   Visibility: 15mi
Dew Point:   Wind: 0mph
Humidity: 85%   Direction: NA
Pressure: 30.33"   Gusts: NA
Location:  45.35°N, 76.03°W
Report Text: CYOW 210100Z 00000KT 15SM FEW200 M11/M13 A3033 RMK CI1 CI TR SLP281
Loading
Personal Weather Stations






























Interactive Weather Map New forecast layout! Learn more

10-Day Weather Forecast

Advertisements
Track Severe Weather on mobile